KMMU/MMU METAR and TAF weather

Enter ICAO airport designator
Station Type Date Time Source
KMMU METAR 2019/10/21 02:35 UTC NOAA

KMMU 210235Z AUTO 03003KT 7SM RA BKN006 BKN013 OVC019 11/11 A2999 RMK AO2 P0001


Station Type Date Time Source
KMMU Decoded METAR 2019/10/21 02:35 UTC NOAA

Morristown Municipal, NJ, United States (KMMU) 40-48N 074-25W
Oct 20, 2019 - 10:35 PM EDT / 2019.10.21 0235 UTC
Wind: from the NNE (030 degrees) at 3 MPH (3 KT):0
Visibility: 7 mile(s):0
Sky conditions: overcast
Weather: rain
Precipitation last hour: 0.01 inches
Temperature: 51 F (11 C)
Dew Point: 51 F (11 C)
Relative Humidity: 100%
Pressure (altimeter): 29.99 in. Hg (1015 hPa)
ob: KMMU 210235Z AUTO 03003KT 7SM RA BKN006 BKN013 OVC019 11/11 A2999 RMK AO2 P0001
cycle: 2

Station Type Date Time Source
KMMU TAF UTC NOAA

Error!

Example: see airport list